Time;durP1;ratioP1;P1;durP2;ratioP2;P2;SDS_P1;SDS_P2;PMS_P1;PMS_P2;Temp;Humidity;BMP_temperature;BMP_pressure;BME280_temperature;BME280_humidity;BME280_pressure;Samples;Min_cycle;Max_cycle;Signal;HPM_P1;HPM_P2
2023/04/08 00:01:52;;;;;;;12.10;9.93;;;4.70;1.00;;;;;;5017220;28;20506;-66
2023/04/08 00:04:18;;;;;;;17.25;14.80;;;4.70;1.00;;;;;;5016977;28;20308;-66
2023/04/08 00:06:44;;;;;;;17.58;14.18;;;4.80;1.00;;;;;;5022977;28;20036;-66
2023/04/08 00:09:10;;;;;;;17.77;14.70;;;4.80;1.00;;;;;;5015101;28;20041;-66
2023/04/08 00:11:36;;;;;;;19.95;16.30;;;4.70;1.00;;;;;;5016040;28;20037;-65
2023/04/08 00:14:03;;;;;;;18.15;15.10;;;4.70;1.00;;;;;;5018152;28;20213;-65
2023/04/08 00:16:29;;;;;;;22.40;18.77;;;4.70;1.00;;;;;;5017190;28;20149;-65
2023/04/08 00:18:55;;;;;;;23.08;19.60;;;4.60;1.00;;;;;;5015872;28;20037;-66
2023/04/08 00:21:22;;;;;;;21.00;18.20;;;4.60;1.00;;;;;;5017252;28;20138;-65
2023/04/08 00:23:48;;;;;;;20.50;17.85;;;4.60;1.00;;;;;;5009995;28;20084;-66
2023/04/08 00:26:14;;;;;;;23.65;19.73;;;4.50;1.00;;;;;;5018456;28;20224;-66
2023/04/08 00:28:41;;;;;;;21.83;18.77;;;4.50;1.00;;;;;;5019210;28;20125;-66
2023/04/08 00:31:08;;;;;;;22.85;19.77;;;4.40;1.00;;;;;;5018411;28;20033;-65
2023/04/08 00:33:34;;;;;;;23.33;20.20;;;4.50;1.00;;;;;;5023371;28;20071;-65
2023/04/08 00:35:59;;;;;;;23.98;21.48;;;4.40;1.00;;;;;;5011787;28;20052;-64
2023/04/08 00:38:25;;;;;;;24.38;19.55;;;4.40;1.00;;;;;;5017717;28;20037;-64
2023/04/08 00:40:51;;;;;;;24.40;19.60;;;4.40;1.00;;;;;;5034986;28;20048;-65
2023/04/08 00:43:19;;;;;;;23.52;19.83;;;4.40;1.00;;;;;;5018207;28;20345;-65
2023/04/08 00:45:46;;;;;;;24.85;20.23;;;4.40;1.00;;;;;;5019015;28;20033;-66
2023/04/08 00:48:12;;;;;;;24.15;20.17;;;4.40;1.00;;;;;;5004792;28;20193;-64
2023/04/08 00:50:40;;;;;;;24.08;20.88;;;4.40;1.00;;;;;;5015062;28;20407;-66
2023/04/08 00:53:05;;;;;;;23.42;19.75;;;4.40;1.00;;;;;;5025337;28;20068;-66
2023/04/08 00:55:31;;;;;;;24.27;21.15;;;4.40;1.20;;;;;;5014497;28;20125;-65
2023/04/08 00:57:57;;;;;;;25.25;21.33;;;4.40;19.80;;;;;;5020945;28;20493;-66
2023/04/08 01:00:23;;;;;;;24.63;20.35;;;4.30;1.00;;;;;;5028192;28;20051;-65
2023/04/08 01:03:17;;;;;;;21.98;15.75;;;4.30;37.30;;;;;;5008746;28;20057;-64
2023/04/08 01:05:52;;;;;;;24.70;19.52;;;4.30;41.00;;;;;;5011568;28;20072;-64
2023/04/08 01:08:18;;;;;;;27.40;23.65;;;4.30;29.90;;;;;;5005660;28;20186;-65
2023/04/08 01:10:47;;;;;;;30.60;24.98;;;4.30;15.60;;;;;;5019483;28;20049;-64
2023/04/08 01:13:17;;;;;;;27.20;23.45;;;4.30;11.40;;;;;;5016553;28;20148;-64
2023/04/08 01:15:44;;;;;;;31.73;25.52;;;4.20;30.20;;;;;;5016240;28;20115;-65
2023/04/08 01:18:13;;;;;;;29.98;26.35;;;4.20;32.20;;;;;;5016348;28;20042;-65
2023/04/08 01:20:41;;;;;;;31.23;27.20;;;4.20;41.20;;;;;;5026156;28;20076;-64
2023/04/08 01:23:51;;;;;;;30.40;27.08;;;4.30;40.00;;;;;;5025590;28;20087;-66
2023/04/08 01:26:23;;;;;;;30.75;27.20;;;4.20;42.00;;;;;;5018016;28;20053;-65
2023/04/08 01:28:52;;;;;;;34.92;28.83;;;4.20;57.60;;;;;;5034778;28;20087;-65
2023/04/08 01:31:18;;;;;;;30.08;26.48;;;4.20;45.30;;;;;;5004272;28;20045;-65
2023/04/08 01:33:47;;;;;;;35.72;28.85;;;4.20;65.40;;;;;;5018535;28;20060;-64
2023/04/08 01:36:13;;;;;;;31.58;27.08;;;4.20;68.60;;;;;;5015227;28;20122;-65
2023/04/08 01:38:40;;;;;;;35.42;28.77;;;4.30;74.90;;;;;;5017561;28;20072;-65
2023/04/08 01:41:09;;;;;;;34.45;28.55;;;4.30;78.60;;;;;;4998288;28;20040;-64
2023/04/08 01:43:38;;;;;;;30.40;25.02;;;4.40;99.90;;;;;;5018426;28;20119;-65
2023/04/08 01:46:06;;;;;;;31.70;26.95;;;4.40;99.90;;;;;;5016704;28;20475;-65
2023/04/08 01:48:32;;;;;;;31.15;24.55;;;4.50;99.90;;;;;;5014309;28;20045;-65
2023/04/08 01:50:59;;;;;;;32.60;27.10;;;4.60;99.90;;;;;;5010069;28;20560;-65
2023/04/08 01:53:25;;;;;;;31.75;27.88;;;4.50;99.90;;;;;;5019178;28;20246;-65
2023/04/08 01:55:57;;;;;;;30.50;26.60;;;4.60;99.90;;;;;;5014619;28;20041;-65
2023/04/08 01:58:26;;;;;;;32.30;25.25;;;4.60;99.90;;;;;;5016690;28;20597;-65
2023/04/08 02:00:53;;;;;;;34.65;27.85;;;4.50;99.90;;;;;;5035703;28;20077;-65
2023/04/08 02:03:21;;;;;;;32.85;27.95;;;4.60;99.90;;;;;;4999962;28;20375;-66
2023/04/08 02:05:47;;;;;;;37.80;28.77;;;4.60;99.90;;;;;;5016223;28;20053;-66
2023/04/08 02:08:12;;;;;;;34.13;28.83;;;4.60;99.90;;;;;;5018534;28;20098;-65
2023/04/08 02:10:38;;;;;;;33.28;28.35;;;4.50;99.90;;;;;;5015919;28;20132;-65
2023/04/08 02:13:04;;;;;;;31.08;27.45;;;4.50;99.90;;;;;;5013431;28;20116;-65
2023/04/08 02:15:35;;;;;;;37.50;28.08;;;4.50;99.90;;;;;;5018406;28;20086;-64
2023/04/08 02:18:16;;;;;;;33.08;27.20;;;4.40;99.90;;;;;;5016931;28;20078;-65
2023/04/08 02:21:07;;;;;;;33.78;27.30;;;4.40;99.90;;;;;;5017780;28;20210;-64
2023/04/08 02:23:37;;;;;;;32.03;25.50;;;4.50;99.90;;;;;;5035630;28;20044;-66
2023/04/08 02:26:05;;;;;;;32.95;28.63;;;4.40;99.90;;;;;;5019088;28;20088;-66
2023/04/08 02:28:34;;;;;;;33.58;27.38;;;4.40;99.90;;;;;;5015666;28;20049;-64
2023/04/08 02:31:01;;;;;;;34.17;28.13;;;4.40;99.90;;;;;;5018599;28;20056;-65
2023/04/08 02:33:28;;;;;;;34.42;29.52;;;4.50;99.90;;;;;;5029101;28;20068;-65
2023/04/08 02:35:54;;;;;;;35.05;29.38;;;4.50;99.90;;;;;;5021322;28;20041;-65
2023/04/08 02:38:20;;;;;;;34.78;29.70;;;4.50;99.90;;;;;;5035595;28;20055;-65
2023/04/08 02:40:50;;;;;;;35.90;29.45;;;4.50;99.90;;;;;;5013240;28;20036;-65
2023/04/08 02:43:15;;;;;;;35.03;29.33;;;4.60;99.90;;;;;;5021184;28;20054;-65
2023/04/08 02:45:42;;;;;;;38.90;31.05;;;4.50;99.90;;;;;;5021017;28;20041;-66
2023/04/08 02:48:09;;;;;;;35.03;28.92;;;4.50;99.90;;;;;;5025371;28;20655;-66
2023/04/08 02:50:35;;;;;;;35.75;29.17;;;4.50;99.90;;;;;;5012474;28;20044;-65
2023/04/08 02:53:00;;;;;;;35.78;29.98;;;4.50;99.90;;;;;;5019768;28;20041;-64
2023/04/08 02:55:26;;;;;;;37.45;27.63;;;4.70;99.90;;;;;;5036892;28;20087;-64
2023/04/08 02:57:52;;;;;;;39.30;30.40;;;4.60;99.90;;;;;;4995921;28;20045;-65
2023/04/08 03:00:17;;;;;;;35.22;28.45;;;4.60;99.90;;;;;;5008331;28;20095;-65
2023/04/08 03:02:43;;;;;;;34.72;28.80;;;4.60;99.90;;;;;;5019914;28;20041;-64
2023/04/08 03:05:09;;;;;;;34.78;29.30;;;4.60;99.90;;;;;;5024724;28;20111;-64
2023/04/08 03:07:36;;;;;;;37.45;31.08;;;4.60;99.90;;;;;;5007619;28;20052;-65
2023/04/08 03:10:02;;;;;;;39.78;31.90;;;4.70;99.90;;;;;;5021119;28;20164;-65
2023/04/08 03:12:27;;;;;;;40.20;32.42;;;4.60;99.90;;;;;;5028467;28;20390;-65
2023/04/08 03:14:53;;;;;;;36.15;30.20;;;4.70;99.90;;;;;;5017936;28;20045;-65
2023/04/08 03:17:19;;;;;;;32.08;24.60;;;4.60;99.90;;;;;;5018961;28;20053;-66
2023/04/08 03:19:45;;;;;;;38.15;29.50;;;4.60;99.90;;;;;;5012386;28;20124;-66
2023/04/08 03:22:12;;;;;;;39.97;31.63;;;4.70;99.90;;;;;;5027694;28;20284;-66
2023/04/08 03:24:37;;;;;;;37.17;30.90;;;4.60;99.90;;;;;;5029662;28;20453;-65
2023/04/08 03:27:03;;;;;;;41.65;32.40;;;4.70;99.90;;;;;;5012534;28;20045;-66
2023/04/08 03:29:29;;;;;;;39.95;31.75;;;4.60;99.90;;;;;;5028941;28;20049;-64
2023/04/08 03:31:54;;;;;;;39.75;32.13;;;4.60;99.90;;;;;;5016496;28;20038;-65
2023/04/08 03:34:20;;;;;;;41.03;32.60;;;4.70;99.90;;;;;;5012610;28;20049;-66
2023/04/08 03:36:46;;;;;;;39.53;29.33;;;4.70;99.90;;;;;;5018769;28;20450;-65
2023/04/08 03:39:12;;;;;;;37.20;29.10;;;4.80;99.90;;;;;;5017991;28;20044;-65
2023/04/08 03:41:38;;;;;;;42.20;31.35;;;4.80;99.90;;;;;;5024903;28;20045;-65
2023/04/08 03:44:04;;;;;;;41.65;30.77;;;4.80;99.90;;;;;;5011885;28;20045;-64
2023/04/08 03:46:30;;;;;;;38.05;28.50;;;4.80;99.90;;;;;;5018386;28;20369;-65
2023/04/08 03:48:56;;;;;;;34.72;26.98;;;4.70;99.90;;;;;;5021616;28;20233;-64
2023/04/08 03:51:21;;;;;;;39.15;29.60;;;4.70;99.90;;;;;;5018551;28;20033;-66
2023/04/08 03:53:48;;;;;;;37.72;29.23;;;4.90;99.90;;;;;;5020005;28;20084;-65
2023/04/08 03:56:14;;;;;;;40.38;31.17;;;4.90;99.90;;;;;;5019280;28;20076;-65
2023/04/08 03:58:40;;;;;;;39.33;32.17;;;4.90;99.90;;;;;;5018831;28;20423;-65
2023/04/08 04:01:05;;;;;;;40.03;31.77;;;4.90;99.90;;;;;;5020085;28;20264;-65
2023/04/08 04:03:31;;;;;;;35.63;27.95;;;5.00;99.90;;;;;;5012575;28;20061;-65
2023/04/08 04:05:56;;;;;;;38.63;30.42;;;5.00;99.90;;;;;;5025574;28;20044;-65
2023/04/08 04:08:22;;;;;;;37.22;28.40;;;5.00;99.90;;;;;;5018084;28;20029;-65
2023/04/08 04:10:48;;;;;;;39.60;30.13;;;5.00;99.90;;;;;;5016927;28;20258;-64
2023/04/08 04:13:14;;;;;;;37.70;29.05;;;5.10;99.90;;;;;;5018102;28;20045;-64
2023/04/08 04:15:40;;;;;;;36.97;28.75;;;5.00;99.90;;;;;;5017479;28;20081;-65
2023/04/08 04:18:07;;;;;;;36.55;26.17;;;5.10;99.90;;;;;;5011510;28;20052;-64
2023/04/08 04:20:32;;;;;;;33.90;27.30;;;5.20;99.90;;;;;;5004068;28;20557;-64
2023/04/08 04:22:58;;;;;;;31.90;24.90;;;5.10;99.90;;;;;;5035689;28;20407;-65
2023/04/08 04:25:24;;;;;;;32.88;25.83;;;5.20;99.90;;;;;;5012638;28;20100;-66
2023/04/08 04:27:50;;;;;;;31.20;23.30;;;5.20;99.90;;;;;;5012144;28;20079;-66
2023/04/08 04:30:15;;;;;;;30.85;24.10;;;5.20;99.90;;;;;;5020897;28;20063;-65
2023/04/08 04:32:42;;;;;;;33.05;25.50;;;5.30;99.90;;;;;;5016754;28;20049;-66
2023/04/08 04:35:11;;;;;;;28.23;21.48;;;5.20;99.90;;;;;;5018112;28;20188;-65
2023/04/08 04:37:38;;;;;;;28.90;20.88;;;5.20;99.90;;;;;;5016146;28;20547;-65
2023/04/08 04:40:04;;;;;;;24.58;19.23;;;5.30;99.90;;;;;;5011799;28;20326;-65
2023/04/08 04:42:31;;;;;;;25.33;19.25;;;5.30;99.90;;;;;;5016697;28;20779;-64
2023/04/08 04:44:57;;;;;;;25.38;17.95;;;5.30;99.90;;;;;;5017866;28;20053;-65
2023/04/08 04:47:24;;;;;;;27.50;18.60;;;5.30;99.90;;;;;;5020184;28;20271;-66
2023/04/08 04:49:50;;;;;;;20.80;15.70;;;5.30;99.90;;;;;;5008347;28;20048;-66
2023/04/08 04:52:15;;;;;;;22.17;17.60;;;5.30;99.90;;;;;;5033258;28;20349;-65
2023/04/08 04:54:41;;;;;;;21.50;15.93;;;5.30;99.90;;;;;;5019423;28;20037;-67
2023/04/08 04:57:07;;;;;;;21.75;15.48;;;5.40;99.90;;;;;;5015660;28;20085;-66
2023/04/08 04:59:33;;;;;;;24.95;15.88;;;5.30;99.90;;;;;;5015805;28;20411;-66
2023/04/08 05:01:58;;;;;;;25.27;16.95;;;5.30;99.90;;;;;;5009078;28;20408;-66
2023/04/08 05:04:25;;;;;;;22.52;17.23;;;5.50;99.90;;;;;;5016293;28;20049;-66
2023/04/08 05:06:52;;;;;;;20.25;16.02;;;5.40;99.90;;;;;;5016717;28;20041;-66
2023/04/08 05:09:18;;;;;;;25.20;16.85;;;5.30;99.90;;;;;;5015754;28;20041;-65
2023/04/08 05:11:44;;;;;;;23.13;17.73;;;5.30;99.90;;;;;;5016165;28;20486;-66
2023/04/08 05:14:10;;;;;;;23.58;19.27;;;5.40;99.90;;;;;;5015973;28;20064;-66
2023/04/08 05:16:35;;;;;;;22.05;17.80;;;5.40;99.90;;;;;;5013953;28;20060;-66
2023/04/08 05:19:01;;;;;;;24.10;18.48;;;5.30;99.90;;;;;;5016697;28;20487;-65
2023/04/08 05:21:27;;;;;;;26.85;19.80;;;5.40;99.90;;;;;;5026505;28;20124;-66
2023/04/08 05:23:53;;;;;;;22.70;18.45;;;5.30;99.90;;;;;;5014343;28;20574;-65
2023/04/08 05:26:22;;;;;;;20.23;17.13;;;5.40;99.90;;;;;;5015687;28;20316;-66
2023/04/08 05:28:49;;;;;;;21.90;17.67;;;5.40;99.90;;;;;;5017861;28;20045;-66
2023/04/08 05:31:16;;;;;;;21.30;18.02;;;5.40;98.70;;;;;;5015860;28;20266;-65
2023/04/08 05:33:42;;;;;;;21.45;17.60;;;5.40;98.00;;;;;;5014783;28;20108;-66
2023/04/08 05:36:07;;;;;;;20.00;16.88;;;5.50;95.50;;;;;;5009195;28;20041;-65
2023/04/08 05:38:33;;;;;;;19.60;16.38;;;5.50;87.00;;;;;;5017984;28;20474;-66
2023/04/08 05:40:59;;;;;;;20.38;16.75;;;5.50;82.50;;;;;;5014834;28;20060;-66
2023/04/08 05:43:24;;;;;;;19.92;17.70;;;5.40;83.60;;;;;;5011890;28;20257;-65
2023/04/08 05:45:50;;;;;;;20.02;16.70;;;5.50;72.70;;;;;;5016803;28;20042;-65
2023/04/08 05:48:16;;;;;;;21.98;17.05;;;5.50;56.30;;;;;;5019081;28;20400;-66
2023/04/08 05:50:43;;;;;;;21.75;16.90;;;5.60;45.00;;;;;;5019377;28;20141;-64
2023/04/08 05:53:10;;;;;;;19.83;17.67;;;5.60;28.00;;;;;;5033684;28;20299;-65
2023/04/08 05:55:35;;;;;;;21.75;17.13;;;5.60;25.30;;;;;;5019597;28;20518;-65
2023/04/08 05:58:01;;;;;;;20.55;16.85;;;5.70;30.00;;;;;;4993512;28;20045;-65
2023/04/08 06:00:27;;;;;;;22.58;17.40;;;5.70;24.20;;;;;;5017705;28;20045;-64
2023/04/08 06:02:52;;;;;;;21.48;17.50;;;5.70;25.50;;;;;;5002627;28;20075;-64
2023/04/08 06:05:18;;;;;;;22.63;17.52;;;5.70;23.80;;;;;;5017977;28;20128;-64
2023/04/08 06:07:44;;;;;;;18.60;16.60;;;5.80;7.00;;;;;;5015244;28;20073;-64
2023/04/08 06:10:10;;;;;;;20.02;17.08;;;5.80;5.40;;;;;;5016914;28;20068;-65
2023/04/08 06:12:39;;;;;;;19.33;16.15;;;5.80;4.50;;;;;;5027230;28;20041;-64
2023/04/08 06:15:07;;;;;;;19.70;16.27;;;5.80;13.00;;;;;;5017285;28;20037;-64
2023/04/08 06:17:36;;;;;;;17.55;14.00;;;5.90;1.00;;;;;;5001234;28;20149;-65
2023/04/08 06:20:02;;;;;;;17.00;14.40;;;5.90;1.00;;;;;;5013310;28;20120;-66
2023/04/08 06:22:28;;;;;;;17.05;15.25;;;5.90;1.00;;;;;;5016335;28;20044;-64
2023/04/08 06:24:54;;;;;;;17.42;14.48;;;5.80;1.00;;;;;;5018876;28;20039;-66
2023/04/08 06:27:19;;;;;;;16.05;14.35;;;5.80;1.00;;;;;;5015594;28;20211;-65
2023/04/08 06:29:46;;;;;;;19.50;15.80;;;5.80;1.00;;;;;;5017638;28;20073;-65
2023/04/08 06:32:12;;;;;;;27.77;20.38;;;5.80;1.00;;;;;;5013191;28;20050;-65
2023/04/08 06:34:39;;;;;;;24.77;20.80;;;5.80;1.00;;;;;;5014035;28;20044;-65
2023/04/08 06:37:05;;;;;;;24.80;19.75;;;5.80;1.00;;;;;;5018868;28;20517;-64
2023/04/08 06:39:31;;;;;;;24.83;20.05;;;5.90;1.00;;;;;;5013952;28;20033;-65
2023/04/08 06:41:57;;;;;;;26.02;21.27;;;5.90;7.10;;;;;;5016588;28;20167;-63
2023/04/08 06:44:23;;;;;;;28.42;23.40;;;5.80;11.30;;;;;;4997080;28;20182;-64
2023/04/08 06:46:49;;;;;;;30.15;23.83;;;5.90;7.80;;;;;;5013186;28;20049;-66
2023/04/08 06:49:15;;;;;;;33.50;23.42;;;5.90;36.40;;;;;;5016978;28;20044;-64
2023/04/08 06:51:40;;;;;;;33.15;25.88;;;6.00;37.70;;;;;;5016028;28;20046;-65
2023/04/08 06:54:06;;;;;;;35.08;25.25;;;6.00;30.80;;;;;;5017547;28;20052;-65
2023/04/08 06:56:32;;;;;;;40.30;29.25;;;6.00;29.40;;;;;;5013797;28;20041;-65
2023/04/08 06:58:58;;;;;;;34.03;23.38;;;6.00;19.10;;;;;;5015369;28;20132;-65
2023/04/08 07:01:24;;;;;;;28.83;21.35;;;6.00;23.10;;;;;;5015614;28;20110;-67
2023/04/08 07:03:50;;;;;;;31.88;25.05;;;6.00;13.30;;;;;;5014986;28;20041;-64
2023/04/08 07:06:16;;;;;;;32.45;24.25;;;5.90;32.70;;;;;;5018164;28;20095;-64
2023/04/08 07:08:43;;;;;;;31.67;24.38;;;6.00;28.50;;;;;;5018580;28;20044;-65
2023/04/08 07:11:10;;;;;;;30.25;23.20;;;6.00;51.20;;;;;;5019582;28;20037;-65
2023/04/08 07:13:36;;;;;;;28.55;24.00;;;6.00;74.60;;;;;;5016145;28;20553;-66
2023/04/08 07:16:01;;;;;;;29.95;22.17;;;6.00;61.50;;;;;;5014592;28;20140;-66
2023/04/08 07:18:27;;;;;;;28.70;22.58;;;6.00;69.40;;;;;;5013224;28;20553;-65
2023/04/08 07:20:53;;;;;;;26.45;20.60;;;6.10;65.50;;;;;;5028826;28;20047;-67
2023/04/08 07:23:20;;;;;;;25.20;20.70;;;6.10;87.30;;;;;;5014118;28;20098;-66
2023/04/08 07:25:47;;;;;;;24.85;19.67;;;6.10;83.10;;;;;;5019505;28;20124;-65
2023/04/08 07:28:12;;;;;;;22.25;18.55;;;6.20;87.60;;;;;;5035372;28;20214;-65
2023/04/08 07:30:38;;;;;;;24.58;21.58;;;6.20;96.70;;;;;;5022649;28;20423;-65
2023/04/08 07:33:04;;;;;;;23.88;20.42;;;6.30;93.30;;;;;;5021006;28;20043;-65
2023/04/08 07:35:30;;;;;;;20.70;17.45;;;6.30;98.90;;;;;;5030087;28;20380;-64
2023/04/08 07:37:56;;;;;;;21.77;18.60;;;6.40;99.60;;;;;;5025588;28;20132;-65
2023/04/08 07:40:22;;;;;;;19.00;16.42;;;6.40;98.30;;;;;;5012194;28;20051;-66
2023/04/08 07:42:49;;;;;;;23.42;18.75;;;6.50;99.90;;;;;;5019437;28;20049;-66
2023/04/08 07:45:14;;;;;;;20.50;18.08;;;6.60;98.70;;;;;;5018188;28;20079;-65
2023/04/08 07:47:40;;;;;;;17.58;13.75;;;6.60;93.90;;;;;;4995390;28;20264;-65
2023/04/08 07:50:07;;;;;;;16.92;13.15;;;6.70;92.90;;;;;;5016144;28;20085;-64
2023/04/08 07:52:33;;;;;;;18.13;14.23;;;6.60;55.50;;;;;;5016833;28;20045;-66
2023/04/08 07:54:59;;;;;;;18.05;14.38;;;6.60;22.80;;;;;;5030821;28;20044;-65
2023/04/08 07:57:25;;;;;;;19.00;15.02;;;6.60;14.40;;;;;;5019785;28;20040;-65
2023/04/08 07:59:51;;;;;;;19.90;14.77;;;6.70;24.30;;;;;;5015055;28;20513;-65
2023/04/08 08:02:17;;;;;;;17.33;11.77;;;6.70;48.60;;;;;;5015015;28;20139;-66
2023/04/08 08:04:43;;;;;;;20.60;15.35;;;6.80;35.20;;;;;;5015235;28;20041;-65
2023/04/08 08:07:08;;;;;;;18.90;15.40;;;6.90;12.10;;;;;;5015147;28;20050;-65
2023/04/08 08:09:34;;;;;;;19.85;14.93;;;7.00;40.20;;;;;;5014623;28;20069;-66
2023/04/08 08:12:00;;;;;;;17.25;13.38;;;7.20;52.20;;;;;;5014109;28;20477;-64
2023/04/08 08:14:26;;;;;;;17.27;12.48;;;7.40;47.90;;;;;;5016247;28;20037;-65
2023/04/08 08:16:55;;;;;;;16.25;11.10;;;7.50;7.10;;;;;;4997808;28;20050;-65
2023/04/08 08:19:21;;;;;;;15.77;11.32;;;7.70;1.00;;;;;;5014493;28;20349;-65
2023/04/08 08:21:47;;;;;;;15.70;12.65;;;7.70;1.00;;;;;;5014319;28;20061;-66
2023/04/08 08:24:12;;;;;;;17.23;12.23;;;7.70;1.00;;;;;;4997575;28;20539;-66
2023/04/08 08:26:39;;;;;;;20.33;14.93;;;7.80;1.00;;;;;;5021256;28;20053;-65
2023/04/08 08:29:07;;;;;;;18.35;13.57;;;7.80;1.00;;;;;;4997577;28;20254;-65
2023/04/08 08:31:33;;;;;;;18.42;13.88;;;7.90;1.00;;;;;;5008960;28;20091;-67
2023/04/08 08:33:59;;;;;;;21.25;15.20;;;7.90;1.00;;;;;;5033746;28;20049;-66
2023/04/08 08:36:26;;;;;;;19.67;15.75;;;7.90;1.00;;;;;;5033118;28;20450;-65
2023/04/08 08:38:53;;;;;;;18.08;13.82;;;8.00;1.00;;;;;;5034256;28;20057;-64
2023/04/08 08:41:20;;;;;;;22.08;16.55;;;8.00;1.00;;;;;;5016088;28;20056;-64
2023/04/08 08:43:46;;;;;;;23.73;17.13;;;8.10;1.00;;;;;;5016419;28;20091;-65
2023/04/08 08:46:16;;;;;;;22.83;18.23;;;8.20;1.00;;;;;;5033017;28;20074;-65
2023/04/08 08:48:42;;;;;;;22.55;17.98;;;8.40;1.00;;;;;;5034779;28;20041;-64
2023/04/08 08:51:09;;;;;;;24.10;18.35;;;8.50;1.00;;;;;;5034127;28;20049;-64
2023/04/08 08:53:35;;;;;;;25.70;19.95;;;8.60;1.00;;;;;;5016456;28;20048;-65
2023/04/08 08:56:01;;;;;;;23.45;18.25;;;8.70;1.00;;;;;;5033990;28;20235;-65
2023/04/08 08:58:28;;;;;;;22.98;16.88;;;8.70;1.00;;;;;;5016360;28;20383;-65
2023/04/08 09:00:54;;;;;;;23.25;17.83;;;8.60;1.00;;;;;;5049677;28;20122;-65
2023/04/08 09:03:28;;;;;;;21.52;17.63;;;8.70;99.90;;;;;;5033583;28;20522;-65
2023/04/08 09:05:57;;;;;;;23.02;18.42;;;8.70;99.90;;;;;;5016414;28;20095;-64
2023/04/08 09:08:33;;;;;;;21.05;17.23;;;8.70;99.90;;;;;;5032523;28;20509;-66
2023/04/08 09:11:11;;;;;;;24.48;18.83;;;8.70;99.90;;;;;;5033024;28;20246;-65
2023/04/08 09:13:37;;;;;;;24.63;19.45;;;8.70;99.90;;;;;;5034245;28;20055;-65
2023/04/08 09:16:04;;;;;;;26.92;20.42;;;8.70;99.90;;;;;;5048464;28;20057;-64
2023/04/08 09:18:31;;;;;;;29.13;22.30;;;8.70;99.90;;;;;;5032441;28;20083;-65
2023/04/08 09:21:04;;;;;;;28.38;21.67;;;8.70;99.90;;;;;;5034176;28;20315;-64
2023/04/08 09:23:43;;;;;;;24.42;20.08;;;8.70;99.90;;;;;;5032928;28;20109;-64
2023/04/08 09:26:18;;;;;;;25.50;19.02;;;8.90;99.90;;;;;;5032328;28;20091;-65
2023/04/08 09:29:09;;;;;;;23.35;18.27;;;9.10;99.90;;;;;;5032286;28;20033;-66
2023/04/08 09:31:43;;;;;;;25.73;18.90;;;9.20;99.90;;;;;;5032161;28;20951;-65
2023/04/08 09:34:18;;;;;;;26.75;18.80;;;9.40;99.90;;;;;;5033824;28;20053;-64
2023/04/08 09:36:45;;;;;;;24.17;18.95;;;9.60;99.90;;;;;;5033589;28;20499;-64
2023/04/08 09:39:11;;;;;;;24.38;19.77;;;9.80;99.90;;;;;;5015905;28;20703;-65
2023/04/08 09:41:38;;;;;;;26.15;19.13;;;10.00;99.90;;;;;;5033493;28;20044;-64
2023/04/08 09:44:08;;;;;;;27.92;19.70;;;10.10;99.90;;;;;;5031702;28;20052;-65
2023/04/08 09:46:50;;;;;;;26.17;19.75;;;10.10;99.90;;;;;;5032377;28;20083;-64
2023/04/08 09:49:16;;;;;;;29.77;20.33;;;10.10;99.90;;;;;;5016002;28;20331;-64
2023/04/08 09:51:56;;;;;;;27.95;20.48;;;9.90;99.90;;;;;;5032556;28;20044;-65
2023/04/08 09:54:25;;;;;;;29.17;21.15;;;9.90;99.90;;;;;;5031817;28;20053;-65
2023/04/08 09:57:03;;;;;;;28.33;20.02;;;9.80;99.90;;;;;;5031797;28;20037;-64
2023/04/08 09:59:33;;;;;;;28.65;19.25;;;9.70;99.90;;;;;;5032009;28;20041;-65
2023/04/08 10:02:02;;;;;;;26.92;18.85;;;9.70;99.90;;;;;;5033278;28;20899;-64
2023/04/08 10:04:31;;;;;;;24.48;18.30;;;9.70;99.90;;;;;;5048118;28;20303;-64
2023/04/08 10:07:02;;;;;;;27.42;19.17;;;9.70;99.90;;;;;;5031636;28;20061;-65
2023/04/08 10:09:28;;;;;;;27.63;19.27;;;9.50;99.90;;;;;;5031984;28;20400;-65
2023/04/08 10:11:54;;;;;;;28.33;18.88;;;9.50;99.90;;;;;;5033203;28;20536;-65
2023/04/08 10:14:21;;;;;;;26.15;19.80;;;9.50;99.90;;;;;;5033098;28;20044;-64
2023/04/08 10:16:47;;;;;;;28.25;19.48;;;9.40;99.90;;;;;;5032558;28;20110;-64
2023/04/08 10:19:40;;;;;;;27.27;19.15;;;9.50;99.90;;;;;;5032660;28;20560;-65
2023/04/08 10:22:25;;;;;;;;;;;9.50;99.90;;;;;;5032967;28;20060;-65
2023/04/08 10:25:15;;;;;;;21.80;17.77;;;9.60;99.90;;;;;;5033515;28;20606;-64
2023/04/08 10:27:43;;;;;;;21.35;16.40;;;9.60;99.90;;;;;;5033514;28;20513;-65
2023/04/08 10:30:32;;;;;;;23.42;16.63;;;9.60;99.90;;;;;;5032875;28;20048;-64
2023/04/08 10:32:59;;;;;;;23.23;15.98;;;9.70;99.90;;;;;;5028984;28;20053;-64
2023/04/08 10:35:31;;;;;;;24.42;17.80;;;9.60;99.90;;;;;;5031334;28;20106;-64
2023/04/08 10:37:58;;;;;;;24.50;20.08;;;9.60;99.90;;;;;;5033380;28;20041;-65
2023/04/08 10:40:24;;;;;;;27.40;20.83;;;9.60;99.90;;;;;;5032517;28;20045;-64
2023/04/08 10:42:57;;;;;;;27.33;22.35;;;9.50;99.90;;;;;;5033052;28;20048;-64
2023/04/08 10:45:23;;;;;;;30.00;22.90;;;9.40;99.90;;;;;;5030641;28;20076;-64
2023/04/08 10:47:49;;;;;;;35.53;23.85;;;9.30;99.90;;;;;;5031832;28;20070;-67
2023/04/08 10:50:16;;;;;;;31.10;24.25;;;9.30;99.90;;;;;;4999373;28;20056;-65
2023/04/08 10:52:52;;;;;;;30.50;23.85;;;9.30;99.90;;;;;;5032413;28;20178;-65
2023/04/08 10:55:24;;;;;;;29.08;24.10;;;9.40;99.90;;;;;;5034099;28;20102;-65
2023/04/08 10:57:50;;;;;;;31.25;24.48;;;9.60;99.90;;;;;;5035987;28;20045;-64
2023/04/08 11:00:38;;;;;;;28.92;22.67;;;9.80;99.90;;;;;;5032083;28;20041;-65
2023/04/08 11:03:07;;;;;;;29.30;23.00;;;10.00;99.90;;;;;;5023937;28;20590;-65
2023/04/08 11:05:33;;;;;;;27.77;21.15;;;10.20;99.90;;;;;;5031403;28;20120;-65
2023/04/08 11:08:00;;;;;;;29.98;22.85;;;10.30;99.90;;;;;;5017637;28;20644;-66
2023/04/08 11:10:27;;;;;;;29.17;23.38;;;10.20;99.90;;;;;;5018981;28;20048;-66
2023/04/08 11:12:54;;;;;;;25.90;21.92;;;10.30;99.90;;;;;;5021085;28;20033;-65
2023/04/08 11:15:21;;;;;;;25.33;20.35;;;10.30;99.90;;;;;;5017751;28;20064;-65
2023/04/08 11:17:47;;;;;;;24.45;20.27;;;10.40;99.90;;;;;;5014267;28;20048;-65
2023/04/08 11:20:13;;;;;;;24.00;19.30;;;10.40;99.90;;;;;;5017574;28;20049;-65
2023/04/08 11:22:39;;;;;;;22.08;19.50;;;10.50;99.90;;;;;;5018731;28;20042;-66
2023/04/08 11:25:07;;;;;;;21.17;18.90;;;10.70;99.90;;;;;;5016657;28;20224;-65
2023/04/08 11:27:34;;;;;;;23.95;19.33;;;10.90;99.90;;;;;;5015931;28;20140;-65
2023/04/08 11:30:01;;;;;;;20.45;17.13;;;11.10;99.90;;;;;;5015706;28;20562;-67
2023/04/08 11:32:30;;;;;;;21.65;16.77;;;11.10;99.90;;;;;;5015712;28;20443;-64
2023/04/08 11:34:58;;;;;;;17.95;16.05;;;11.10;99.90;;;;;;4998657;28;20567;-65
2023/04/08 11:37:25;;;;;;;17.98;15.65;;;10.90;99.90;;;;;;4999160;28;20049;-65
2023/04/08 11:39:53;;;;;;;17.02;15.07;;;10.80;99.90;;;;;;5027150;28;20045;-64
2023/04/08 11:42:32;;;;;;;17.73;15.75;;;10.80;99.90;;;;;;5016141;28;20057;-66
2023/04/08 11:44:58;;;;;;;16.13;14.43;;;10.90;99.90;;;;;;5034130;28;20507;-65
2023/04/08 11:47:32;;;;;;;16.27;14.18;;;11.00;99.90;;;;;;5034335;28;20052;-65
2023/04/08 11:49:58;;;;;;;18.48;15.13;;;11.20;99.90;;;;;;5018057;28;20053;-65
2023/04/08 11:52:44;;;;;;;17.35;14.98;;;11.30;99.90;;;;;;5033421;28;20060;-66
2023/04/08 11:55:11;;;;;;;16.05;13.82;;;11.50;99.90;;;;;;5016583;28;20491;-65
2023/04/08 11:57:38;;;;;;;16.23;12.95;;;11.70;99.90;;;;;;5035235;28;20041;-64
2023/04/08 12:00:07;;;;;;;17.25;12.27;;;11.80;99.90;;;;;;5032912;28;20095;-65
2023/04/08 12:02:32;;;;;;;13.65;11.55;;;11.90;99.90;;;;;;5020275;28;20522;-64
2023/04/08 12:04:58;;;;;;;13.40;11.05;;;12.10;99.90;;;;;;5015554;28;20306;-65
2023/04/08 12:07:24;;;;;;;11.77;10.50;;;12.40;99.90;;;;;;5017794;28;20067;-64
2023/04/08 12:09:50;;;;;;;11.55;10.35;;;12.50;99.90;;;;;;5006904;28;20048;-64
2023/04/08 12:12:16;;;;;;;13.82;11.38;;;12.20;99.90;;;;;;5018933;28;20495;-65
2023/04/08 12:14:41;;;;;;;12.27;10.98;;;12.40;99.90;;;;;;5017993;28;20479;-64
2023/04/08 12:17:07;;;;;;;11.52;10.30;;;12.80;99.90;;;;;;5012861;28;20407;-66
2023/04/08 12:19:33;;;;;;;12.35;10.75;;;13.00;99.90;;;;;;5017208;28;20416;-65
2023/04/08 12:21:58;;;;;;;11.57;10.48;;;13.50;99.90;;;;;;5012401;28;20361;-66
2023/04/08 12:24:25;;;;;;;13.15;10.15;;;13.70;99.90;;;;;;5017925;28;20056;-66
2023/04/08 12:26:51;;;;;;;12.10;10.40;;;13.80;99.90;;;;;;5019873;28;20432;-65
2023/04/08 12:29:16;;;;;;;12.52;9.73;;;14.10;99.90;;;;;;5002874;28;20102;-66
2023/04/08 12:31:42;;;;;;;11.48;10.13;;;14.30;99.90;;;;;;5024555;28;20122;-65
2023/04/08 12:34:08;;;;;;;13.85;10.30;;;14.60;99.90;;;;;;5021619;28;20160;-65
2023/04/08 12:36:33;;;;;;;13.55;10.82;;;14.60;99.90;;;;;;5016928;28;20218;-65
2023/04/08 12:38:59;;;;;;;12.50;11.20;;;14.60;99.90;;;;;;5014955;28;20095;-65
2023/04/08 12:41:25;;;;;;;11.75;10.65;;;14.50;99.90;;;;;;5018687;28;20095;-65